createdAt,value
2023-03-05T00:02:11.711Z,9.43
2023-03-05T00:04:38.523Z,9.20
2023-03-05T00:07:05.882Z,8.63
2023-03-05T00:09:34.321Z,9.63
2023-03-05T00:12:04.647Z,9.40
2023-03-05T00:14:31.385Z,8.43
2023-03-05T00:16:58.114Z,8.40
2023-03-05T00:19:24.846Z,9.13
2023-03-05T00:21:51.641Z,8.67
2023-03-05T00:24:18.960Z,10.30
2023-03-05T00:26:46.401Z,8.70
2023-03-05T00:29:18.327Z,8.30
2023-03-05T00:31:45.805Z,9.47
2023-03-05T00:34:15.402Z,8.73
2023-03-05T00:36:49.680Z,9.83
2023-03-05T00:39:18.137Z,8.93
2023-03-05T00:41:45.020Z,8.40
2023-03-05T00:44:12.219Z,8.27
2023-03-05T00:46:40.319Z,7.80
2023-03-05T00:49:07.313Z,7.87
2023-03-05T00:51:34.227Z,7.77
2023-03-05T00:54:01.114Z,8.47
2023-03-05T00:56:27.948Z,9.30
2023-03-05T00:58:56.478Z,8.57
2023-03-05T01:01:24.429Z,8.07
2023-03-05T01:03:51.580Z,8.80
2023-03-05T01:06:19.035Z,8.87
2023-03-05T01:08:45.771Z,9.37
2023-03-05T01:11:12.822Z,9.07
2023-03-05T01:13:39.888Z,8.93
2023-03-05T01:16:07.192Z,8.47
2023-03-05T01:18:34.272Z,8.87
2023-03-05T01:21:01.129Z,9.20
2023-03-05T01:23:27.881Z,9.10
2023-03-05T01:25:59.352Z,9.27
2023-03-05T01:28:27.097Z,9.63
2023-03-05T01:30:53.989Z,9.20
2023-03-05T01:33:21.046Z,9.57
2023-03-05T01:35:49.320Z,9.87
2023-03-05T01:38:16.622Z,9.20
2023-03-05T01:40:43.985Z,9.37
2023-03-05T01:43:13.586Z,9.97
2023-03-05T01:46:19.226Z,9.63
2023-03-05T01:48:50.316Z,10.07
2023-03-05T01:51:19.766Z,9.80
2023-03-05T01:53:47.409Z,8.70
2023-03-05T01:56:14.776Z,10.73
2023-03-05T01:58:41.916Z,10.90
2023-03-05T02:01:09.093Z,9.70
2023-03-05T02:03:38.080Z,10.63
2023-03-05T02:06:05.146Z,10.17
2023-03-05T02:08:33.728Z,9.63
2023-03-05T02:11:02.112Z,10.23
2023-03-05T02:13:35.391Z,9.80
2023-03-05T02:16:02.792Z,10.87
2023-03-05T02:18:29.681Z,10.47
2023-03-05T02:20:56.415Z,10.10
2023-03-05T02:23:29.922Z,10.40
2023-03-05T02:25:57.040Z,10.67
2023-03-05T02:28:32.203Z,11.03
2023-03-05T02:30:59.823Z,9.57
2023-03-05T02:33:26.788Z,10.57
2023-03-05T02:35:53.983Z,10.23
2023-03-05T02:38:21.969Z,11.60
2023-03-05T02:40:48.711Z,11.23
2023-03-05T02:43:15.507Z,13.37
2023-03-05T02:45:42.248Z,12.53
2023-03-05T02:48:09.083Z,11.57
2023-03-05T02:50:36.624Z,12.53
2023-03-05T02:53:03.518Z,11.20
2023-03-05T02:55:30.249Z,11.70
2023-03-05T02:57:57.031Z,12.20
2023-03-05T03:00:24.005Z,12.40
2023-03-05T03:02:50.941Z,12.37
2023-03-05T03:05:17.933Z,12.70
2023-03-05T03:07:44.875Z,12.03
2023-03-05T03:10:12.527Z,13.53
2023-03-05T03:12:44.744Z,13.30
2023-03-05T03:15:13.094Z,12.43
2023-03-05T03:17:40.120Z,13.00
2023-03-05T03:20:09.513Z,13.00
2023-03-05T03:22:36.470Z,14.10
2023-03-05T03:25:05.198Z,12.33
2023-03-05T03:27:33.255Z,13.67
2023-03-05T03:30:02.822Z,14.20
2023-03-05T03:32:29.864Z,14.17
2023-03-05T03:34:57.354Z,14.03
2023-03-05T03:37:24.397Z,13.73
2023-03-05T03:39:51.177Z,14.17
2023-03-05T03:42:19.690Z,13.73
2023-03-05T03:44:46.986Z,14.00
2023-03-05T03:47:13.942Z,14.30
2023-03-05T03:49:40.918Z,14.30
2023-03-05T03:52:07.894Z,15.20
2023-03-05T03:54:35.408Z,14.87
2023-03-05T03:57:02.411Z,15.10
2023-03-05T03:59:29.178Z,15.30
2023-03-05T04:01:55.866Z,15.33
2023-03-05T04:04:23.806Z,14.73
2023-03-05T04:06:50.595Z,15.23
2023-03-05T04:09:17.375Z,14.50
2023-03-05T04:11:44.183Z,15.87
2023-03-05T04:14:11.016Z,14.87
2023-03-05T04:16:37.866Z,14.90
2023-03-05T04:19:04.854Z,14.90
2023-03-05T04:21:31.646Z,15.57
2023-03-05T04:23:58.439Z,15.37
2023-03-05T04:26:26.388Z,14.93
2023-03-05T04:28:53.110Z,16.57
2023-03-05T04:31:20.681Z,14.70
2023-03-05T04:33:47.808Z,14.80
2023-03-05T04:36:14.591Z,14.53
2023-03-05T04:38:41.596Z,16.40
2023-03-05T04:41:08.295Z,16.23
2023-03-05T04:43:36.210Z,16.40
2023-03-05T04:46:03.157Z,16.50
2023-03-05T04:48:29.957Z,14.90
2023-03-05T04:50:57.925Z,15.63
2023-03-05T04:53:26.161Z,16.03
2023-03-05T04:55:56.673Z,17.03
2023-03-05T04:58:24.238Z,16.80
2023-03-05T05:00:52.581Z,17.63
2023-03-05T05:03:19.434Z,16.50
2023-03-05T05:05:46.189Z,16.67
2023-03-05T05:08:13.136Z,16.73
2023-03-05T05:10:40.221Z,16.53
2023-03-05T05:13:07.113Z,16.13
2023-03-05T05:15:34.028Z,16.30
2023-03-05T05:18:00.819Z,17.27
2023-03-05T05:20:27.690Z,16.00
2023-03-05T05:22:54.434Z,17.37
2023-03-05T05:25:22.570Z,17.60
2023-03-05T05:27:49.304Z,17.47
2023-03-05T05:30:16.370Z,16.43
2023-03-05T05:32:43.217Z,17.37
2023-03-05T05:35:10.866Z,17.00
2023-03-05T05:37:37.627Z,17.60
2023-03-05T05:40:05.754Z,16.47
2023-03-05T05:42:32.546Z,16.23
2023-03-05T05:45:02.956Z,17.03
2023-03-05T05:47:30.866Z,16.20
2023-03-05T05:49:57.677Z,18.17
2023-03-05T05:52:24.634Z,16.07
2023-03-05T05:54:51.583Z,16.13
2023-03-05T05:57:18.340Z,16.07
2023-03-05T05:59:45.094Z,16.20
2023-03-05T06:02:11.932Z,16.40
2023-03-05T06:04:40.007Z,17.87
2023-03-05T06:07:07.158Z,15.47
2023-03-05T06:09:36.302Z,16.77
2023-03-05T06:12:03.515Z,15.47
2023-03-05T06:14:30.294Z,15.87
2023-03-05T06:16:57.167Z,16.10
2023-03-05T06:19:23.946Z,16.47
2023-03-05T06:21:50.820Z,15.57
2023-03-05T06:24:19.358Z,15.93
2023-03-05T06:26:46.820Z,16.30
2023-03-05T06:29:13.966Z,16.10
2023-03-05T06:31:41.933Z,16.83
2023-03-05T06:34:08.681Z,14.93
2023-03-05T06:36:35.436Z,15.47
2023-03-05T06:39:03.656Z,15.97
2023-03-05T06:41:31.893Z,15.50
2023-03-05T06:44:04.839Z,15.33
2023-03-05T06:46:34.450Z,15.43
2023-03-05T06:49:04.170Z,17.30
2023-03-05T06:51:33.916Z,17.33
2023-03-05T06:54:06.232Z,16.77
2023-03-05T06:56:35.320Z,16.50
2023-03-05T06:59:02.122Z,15.27
2023-03-05T07:01:29.087Z,16.30
2023-03-05T07:03:58.909Z,16.50
2023-03-05T07:06:27.437Z,15.90
2023-03-05T07:08:58.822Z,17.03
2023-03-05T07:11:25.906Z,17.00
2023-03-05T07:13:52.946Z,15.73
2023-03-05T07:16:26.173Z,15.60
2023-03-05T07:18:53.930Z,16.93
2023-03-05T07:21:28.840Z,17.80
2023-03-05T07:23:57.229Z,16.67
2023-03-05T07:26:24.600Z,16.77
2023-03-05T07:28:51.854Z,15.90
2023-03-05T07:31:21.364Z,16.00
2023-03-05T07:33:51.260Z,16.23
2023-03-05T07:36:18.652Z,16.37
2023-03-05T07:38:45.732Z,16.73
2023-03-05T07:41:20.109Z,17.53
2023-03-05T07:43:49.240Z,16.90
2023-03-05T07:46:18.116Z,16.00
2023-03-05T07:48:45.013Z,16.37
2023-03-05T07:51:15.888Z,18.27
2023-03-05T07:53:47.364Z,17.20
2023-03-05T07:56:14.625Z,17.10
2023-03-05T07:58:41.372Z,16.97
2023-03-05T08:01:14.158Z,17.43
2023-03-05T08:03:42.202Z,16.73
2023-03-05T08:06:10.235Z,16.87
2023-03-05T08:08:37.531Z,16.37
2023-03-05T08:11:12.741Z,17.87
2023-03-05T08:13:43.806Z,17.23
2023-03-05T08:16:17.053Z,17.70
2023-03-05T08:18:44.357Z,17.97
2023-03-05T08:21:23.439Z,17.43
2023-03-05T08:23:50.303Z,16.83
2023-03-05T08:26:21.180Z,17.27
2023-03-05T08:28:48.272Z,18.47
2023-03-05T08:31:17.199Z,17.10
2023-03-05T08:33:44.201Z,17.77
2023-03-05T08:36:11.271Z,18.57
2023-03-05T08:38:38.015Z,17.67
2023-03-05T08:41:05.818Z,17.53
2023-03-05T08:43:33.225Z,17.10
2023-03-05T08:46:01.653Z,17.23
2023-03-05T08:48:31.798Z,16.43
2023-03-05T08:51:04.954Z,16.47
2023-03-05T08:53:31.724Z,17.10
2023-03-05T08:55:58.891Z,16.67
2023-03-05T08:58:26.308Z,16.80
2023-03-05T09:00:53.207Z,16.47
2023-03-05T09:03:20.226Z,15.73
2023-03-05T09:05:48.610Z,16.40
2023-03-05T09:08:15.863Z,16.00
2023-03-05T09:10:43.589Z,16.40
2023-03-05T09:13:10.997Z,15.47
2023-03-05T09:15:38.326Z,14.83
2023-03-05T09:18:05.518Z,15.47
2023-03-05T09:20:33.270Z,14.67
2023-03-05T09:23:00.113Z,14.47
2023-03-05T09:25:27.133Z,13.97
2023-03-05T09:27:53.949Z,13.80
2023-03-05T09:30:21.131Z,14.87
2023-03-05T09:32:47.882Z,14.63
2023-03-05T09:35:14.737Z,14.27
2023-03-05T09:37:41.649Z,13.50
2023-03-05T09:40:12.347Z,14.00
2023-03-05T09:42:54.709Z,13.97
2023-03-05T09:46:06.210Z,14.10
2023-03-05T09:48:41.834Z,14.47
2023-03-05T09:51:34.646Z,13.60
2023-03-05T09:54:44.890Z,14.57
2023-03-05T09:57:20.641Z,12.33
2023-03-05T10:00:01.125Z,12.67
2023-03-05T10:02:36.152Z,13.13
2023-03-05T10:05:26.104Z,13.23
2023-03-05T10:08:00.278Z,13.93
2023-03-05T10:10:32.963Z,13.63
2023-03-05T10:13:05.514Z,13.00
2023-03-05T10:16:03.344Z,12.23
2023-03-05T10:18:53.857Z,12.63
2023-03-05T10:21:46.085Z,12.97
2023-03-05T10:24:54.712Z,12.13
2023-03-05T10:27:40.580Z,11.60
2023-03-05T10:30:48.816Z,11.57
2023-03-05T10:33:53.849Z,12.33
2023-03-05T10:36:26.816Z,11.53
2023-03-05T10:38:54.787Z,11.37
2023-03-05T10:41:39.782Z,11.57
2023-03-05T10:44:19.125Z,11.60
2023-03-05T10:46:47.988Z,11.90
2023-03-05T10:49:26.643Z,11.43
2023-03-05T10:52:11.919Z,11.73
2023-03-05T10:54:41.834Z,10.60
2023-03-05T10:57:24.990Z,12.13
2023-03-05T11:00:01.169Z,11.13
2023-03-05T11:02:28.050Z,11.57
2023-03-05T11:05:05.212Z,11.80
2023-03-05T11:07:34.393Z,10.83
2023-03-05T11:10:02.038Z,10.80
2023-03-05T11:12:37.748Z,9.63
2023-03-05T11:15:04.700Z,9.07
2023-03-05T11:17:31.841Z,9.07
2023-03-05T11:20:27.697Z,10.70
2023-03-05T11:23:25.018Z,10.07
2023-03-05T11:26:12.652Z,10.27
2023-03-05T11:28:55.377Z,9.90
2023-03-05T11:31:28.368Z,9.93
2023-03-05T11:34:01.630Z,10.13
2023-03-05T11:36:37.187Z,9.90
2023-03-05T11:39:07.429Z,10.23
2023-03-05T11:41:48.516Z,10.10
2023-03-05T11:44:22.259Z,9.40
2023-03-05T11:46:55.768Z,9.70
2023-03-05T11:49:27.703Z,9.23
2023-03-05T11:52:26.027Z,9.37
2023-03-05T11:55:01.380Z,9.57
2023-03-05T11:57:38.207Z,9.67
2023-03-05T12:00:11.765Z,9.50
2023-03-05T12:02:38.960Z,9.57
2023-03-05T12:05:07.614Z,8.60
2023-03-05T12:07:46.550Z,9.63
2023-03-05T12:10:23.733Z,9.23
2023-03-05T12:13:20.104Z,9.17
2023-03-05T12:15:50.165Z,9.73
2023-03-05T12:18:50.970Z,8.77
2023-03-05T12:21:37.631Z,9.07
2023-03-05T12:24:28.669Z,9.57
2023-03-05T12:27:04.140Z,9.53
2023-03-05T12:29:43.922Z,10.37
2023-03-05T12:32:23.145Z,9.40
2023-03-05T12:34:56.525Z,10.27
2023-03-05T12:37:26.035Z,9.13
2023-03-05T12:40:17.881Z,10.10
2023-03-05T12:42:55.823Z,8.93
2023-03-05T12:45:24.323Z,8.70
2023-03-05T12:47:57.165Z,8.17
2023-03-05T12:50:27.093Z,9.07
2023-03-05T12:52:55.403Z,9.27
2023-03-05T12:55:33.555Z,8.60
2023-03-05T12:58:07.200Z,9.40
2023-03-05T13:00:44.797Z,8.53
2023-03-05T13:03:26.920Z,8.70
2023-03-05T13:05:56.321Z,8.93
2023-03-05T13:08:35.998Z,9.30
2023-03-05T13:11:06.218Z,8.17
2023-03-05T13:13:42.344Z,8.27
2023-03-05T13:16:29.136Z,8.10
2023-03-05T13:18:59.308Z,6.90
2023-03-05T13:21:29.720Z,7.87
2023-03-05T13:24:01.063Z,6.70
2023-03-05T13:26:38.118Z,7.17
2023-03-05T13:29:20.062Z,6.87
2023-03-05T13:31:49.450Z,7.03
2023-03-05T13:34:18.948Z,6.70
2023-03-05T13:36:51.219Z,6.57
2023-03-05T13:39:25.968Z,7.17
2023-03-05T13:41:59.178Z,6.97
2023-03-05T13:44:26.551Z,7.07
2023-03-05T13:46:53.257Z,6.57
2023-03-05T13:49:24.722Z,7.83
2023-03-05T13:51:55.297Z,7.10
2023-03-05T13:54:25.213Z,7.63
2023-03-05T13:56:54.959Z,7.27
2023-03-05T13:59:24.346Z,6.87
2023-03-05T14:01:52.736Z,7.37
2023-03-05T14:04:28.824Z,7.33
2023-03-05T14:07:51.109Z,7.00
2023-03-05T14:10:42.113Z,6.20
2023-03-05T14:13:17.963Z,6.70
2023-03-05T14:16:11.717Z,6.30
2023-03-05T14:18:53.546Z,6.73
2023-03-05T14:21:20.444Z,7.13
2023-03-05T14:23:49.371Z,6.93
2023-03-05T14:26:35.246Z,5.93
2023-03-05T14:29:03.400Z,6.50
2023-03-05T14:31:36.757Z,6.40
2023-03-05T14:34:07.305Z,6.63
2023-03-05T14:36:34.682Z,6.60
2023-03-05T14:39:02.107Z,6.17
2023-03-05T14:41:39.893Z,5.33
2023-03-05T14:44:20.486Z,5.33
2023-03-05T14:46:50.278Z,4.90
2023-03-05T14:49:17.990Z,5.10
2023-03-05T14:51:46.691Z,5.70
2023-03-05T14:54:23.589Z,5.30
2023-03-05T14:56:50.866Z,4.97
2023-03-05T14:59:20.979Z,5.00
2023-03-05T15:01:50.019Z,5.03
2023-03-05T15:04:19.261Z,4.57
2023-03-05T15:06:50.719Z,4.37
2023-03-05T15:09:19.719Z,5.30
2023-03-05T15:11:46.974Z,5.23
2023-03-05T15:14:13.702Z,4.97
2023-03-05T15:16:43.190Z,5.20
2023-03-05T15:19:12.960Z,4.90
2023-03-05T15:21:39.952Z,5.50
2023-03-05T15:24:07.042Z,5.20
2023-03-05T15:26:33.837Z,4.80
2023-03-05T15:29:00.690Z,5.07
2023-03-05T15:31:28.674Z,4.73
2023-03-05T15:33:55.538Z,5.17
2023-03-05T15:36:22.266Z,4.90
2023-03-05T15:38:49.138Z,4.63
2023-03-05T15:41:16.601Z,4.97
2023-03-05T15:43:43.413Z,5.03
2023-03-05T15:46:10.303Z,5.07
2023-03-05T15:48:37.165Z,5.40
2023-03-05T15:51:07.359Z,5.07
2023-03-05T15:53:34.172Z,4.70
2023-03-05T15:56:00.895Z,5.13
2023-03-05T15:58:27.718Z,5.37
2023-03-05T16:00:54.660Z,5.50
2023-03-05T16:03:23.083Z,5.43
2023-03-05T16:05:49.895Z,5.00
2023-03-05T16:08:16.719Z,5.13
2023-03-05T16:10:43.876Z,5.70
2023-03-05T16:13:16.183Z,4.93
2023-03-05T16:15:43.891Z,5.10
2023-03-05T16:18:14.295Z,5.33
2023-03-05T16:20:41.088Z,4.60
2023-03-05T16:23:07.903Z,4.57
2023-03-05T16:25:34.780Z,4.60
2023-03-05T16:28:01.813Z,4.40
2023-03-05T16:30:28.867Z,4.27
2023-03-05T16:32:55.825Z,4.60
2023-03-05T16:35:22.811Z,4.70
2023-03-05T16:37:49.820Z,4.13
2023-03-05T16:40:16.856Z,4.50
2023-03-05T16:42:43.679Z,4.40
2023-03-05T16:45:11.890Z,3.97
2023-03-05T16:47:39.779Z,3.80
2023-03-05T16:50:09.040Z,4.43
2023-03-05T16:52:36.570Z,4.87
2023-03-05T16:55:05.095Z,4.93
2023-03-05T16:57:31.924Z,5.10
2023-03-05T17:00:02.709Z,4.90
2023-03-05T17:02:29.569Z,4.97
2023-03-05T17:04:58.148Z,4.43
2023-03-05T17:07:26.476Z,5.57
2023-03-05T17:09:54.020Z,5.37
2023-03-05T17:12:23.530Z,5.40
2023-03-05T17:14:50.336Z,4.90
2023-03-05T17:17:17.263Z,4.83
2023-03-05T17:19:47.276Z,5.07
2023-03-05T17:22:16.072Z,4.70
2023-03-05T17:24:42.989Z,4.63
2023-03-05T17:27:10.377Z,4.90
2023-03-05T17:29:37.402Z,4.67
2023-03-05T17:32:04.669Z,4.63
2023-03-05T17:34:36.714Z,4.77
2023-03-05T17:37:05.018Z,4.83
2023-03-05T17:39:31.855Z,4.23
2023-03-05T17:41:58.701Z,4.40
2023-03-05T17:44:25.559Z,4.60
2023-03-05T17:46:52.629Z,4.30
2023-03-05T17:49:19.676Z,4.37
2023-03-05T17:51:46.498Z,5.17
2023-03-05T17:54:13.456Z,4.47
2023-03-05T17:56:40.393Z,4.27
2023-03-05T17:59:07.410Z,4.20
2023-03-05T18:01:34.987Z,4.60
2023-03-05T18:04:02.044Z,4.57
2023-03-05T18:06:29.331Z,4.47
2023-03-05T18:08:56.199Z,4.50
2023-03-05T18:11:23.312Z,5.00
2023-03-05T18:13:50.830Z,5.10
2023-03-05T18:16:18.500Z,5.57
2023-03-05T18:18:46.064Z,5.40
2023-03-05T18:21:12.958Z,5.50
2023-03-05T18:23:40.197Z,5.03
2023-03-05T18:26:06.954Z,5.40
2023-03-05T18:28:33.738Z,6.03
2023-03-05T18:31:01.771Z,5.20
2023-03-05T18:33:28.674Z,6.20
2023-03-05T18:35:57.776Z,6.20
2023-03-05T18:38:27.196Z,5.60
2023-03-05T18:40:56.511Z,5.50
2023-03-05T18:43:24.741Z,6.07
2023-03-05T18:45:53.740Z,5.97
2023-03-05T18:48:21.285Z,6.53
2023-03-05T18:50:54.348Z,6.77
2023-03-05T18:53:22.441Z,6.47
2023-03-05T18:55:51.293Z,6.47
2023-03-05T18:58:18.391Z,5.63
2023-03-05T19:00:47.133Z,5.57
2023-03-05T19:03:16.115Z,5.60
2023-03-05T19:05:43.165Z,5.37
2023-03-05T19:08:13.172Z,6.70
2023-03-05T19:10:40.121Z,6.10
2023-03-05T19:13:35.708Z,5.77
2023-03-05T19:16:15.171Z,5.43
2023-03-05T19:18:57.229Z,5.30
2023-03-05T19:21:24.807Z,5.70
2023-03-05T19:23:51.697Z,5.93
2023-03-05T19:26:18.588Z,5.67
2023-03-05T19:28:47.928Z,6.00
2023-03-05T19:31:15.802Z,5.90
2023-03-05T19:33:42.783Z,5.70
2023-03-05T19:36:11.323Z,5.70
2023-03-05T19:38:38.602Z,5.53
2023-03-05T19:41:06.421Z,6.37
2023-03-05T19:43:33.218Z,6.57
2023-03-05T19:46:04.379Z,6.00
2023-03-05T19:48:32.696Z,6.90
2023-03-05T19:50:59.569Z,6.43
2023-03-05T19:53:26.419Z,6.10
2023-03-05T19:55:54.691Z,7.17
2023-03-05T19:58:21.713Z,6.63
2023-03-05T20:00:48.508Z,6.90
2023-03-05T20:03:15.292Z,6.30
2023-03-05T20:05:43.674Z,6.53
2023-03-05T20:08:10.685Z,6.70
2023-03-05T20:10:37.402Z,6.73
2023-03-05T20:13:11.479Z,7.10
2023-03-05T20:15:50.572Z,7.20
2023-03-05T20:18:17.719Z,7.13
2023-03-05T20:20:44.794Z,6.87
2023-03-05T20:23:11.624Z,7.50
2023-03-05T20:25:39.041Z,7.30
2023-03-05T20:28:05.781Z,6.90
2023-03-05T20:30:32.503Z,8.07
2023-03-05T20:32:59.627Z,8.03
2023-03-05T20:35:26.562Z,10.27
2023-03-05T20:38:15.439Z,11.20
2023-03-05T20:40:42.194Z,9.10
2023-03-05T20:43:09.007Z,9.30
2023-03-05T20:45:36.193Z,9.07
2023-03-05T20:48:02.949Z,8.53
2023-03-05T20:50:29.884Z,8.83
2023-03-05T20:52:57.546Z,8.90
2023-03-05T20:55:27.665Z,7.83
2023-03-05T20:57:56.029Z,8.77
2023-03-05T21:00:23.894Z,8.60
2023-03-05T21:02:51.938Z,8.13
2023-03-05T21:05:20.189Z,8.10
2023-03-05T21:07:46.971Z,7.67
2023-03-05T21:10:16.520Z,7.87
2023-03-05T21:12:44.154Z,9.33
2023-03-05T21:15:13.438Z,9.30
2023-03-05T21:17:41.757Z,10.20
2023-03-05T21:20:09.998Z,10.00
2023-03-05T21:22:36.949Z,9.50
2023-03-05T21:25:24.884Z,9.93
2023-03-05T21:28:15.586Z,12.33
2023-03-05T21:30:45.127Z,14.40
2023-03-05T21:33:24.469Z,17.67
2023-03-05T21:35:52.773Z,15.63
2023-03-05T21:38:24.450Z,11.77
2023-03-05T21:40:53.754Z,11.37
2023-03-05T21:43:23.105Z,8.63
2023-03-05T21:45:54.583Z,7.70
2023-03-05T21:48:22.599Z,9.07
2023-03-05T21:50:50.193Z,9.23
2023-03-05T21:53:19.415Z,10.07
2023-03-05T21:56:21.074Z,10.37
2023-03-05T21:58:49.101Z,9.40
2023-03-05T22:01:18.554Z,8.67
2023-03-05T22:03:46.162Z,8.93
2023-03-05T22:06:15.324Z,8.87
2023-03-05T22:08:42.732Z,9.17
2023-03-05T22:11:11.089Z,9.60
2023-03-05T22:13:38.964Z,10.60
2023-03-05T22:16:06.248Z,11.47
2023-03-05T22:18:33.960Z,11.50
2023-03-05T22:21:02.430Z,11.70
2023-03-05T22:23:31.516Z,11.13
2023-03-05T22:26:02.403Z,11.60
2023-03-05T22:28:30.055Z,11.20
2023-03-05T22:30:57.374Z,10.70
2023-03-05T22:33:24.486Z,11.57
2023-03-05T22:35:53.997Z,11.70
2023-03-05T22:38:21.066Z,11.43
2023-03-05T22:40:49.799Z,11.77
2023-03-05T22:43:18.200Z,10.73
2023-03-05T22:45:45.168Z,10.63
2023-03-05T22:48:12.296Z,10.13
2023-03-05T22:50:40.309Z,9.17
2023-03-05T22:53:07.173Z,9.63
2023-03-05T22:55:33.958Z,10.63
2023-03-05T22:58:00.696Z,11.27
2023-03-05T23:00:30.045Z,11.37
2023-03-05T23:02:56.915Z,10.83
2023-03-05T23:05:23.729Z,11.17
2023-03-05T23:07:50.516Z,11.57
2023-03-05T23:10:20.093Z,10.33
2023-03-05T23:12:50.887Z,10.33
2023-03-05T23:15:23.381Z,11.80
2023-03-05T23:17:50.246Z,11.27
2023-03-05T23:20:20.974Z,12.07
2023-03-05T23:22:48.507Z,11.73
2023-03-05T23:25:16.502Z,11.53
2023-03-05T23:27:43.811Z,11.63
2023-03-05T23:30:16.717Z,10.87
2023-03-05T23:32:45.868Z,11.50
2023-03-05T23:35:14.750Z,10.33
2023-03-05T23:37:42.117Z,11.70
2023-03-05T23:40:15.021Z,11.30
2023-03-05T23:42:42.600Z,11.90
2023-03-05T23:45:11.728Z,11.07
2023-03-05T23:47:38.989Z,11.20
2023-03-05T23:50:08.091Z,12.30
2023-03-05T23:52:35.236Z,12.13
2023-03-05T23:55:01.948Z,11.73
2023-03-05T23:57:28.941Z,11.00
2023-03-05T23:59:55.686Z,12.07
